Time;durP1;ratioP1;P1;durP2;ratioP2;P2;SDS_P1;SDS_P2;PMS_P1;PMS_P2;Temp;Humidity;BMP_temperature;BMP_pressure;BME280_temperature;BME280_humidity;BME280_pressure;Samples;Min_cycle;Max_cycle;Signal;HPM_P1;HPM_P2
2021/01/14 00:00:48;;;;;;;21.00;10.80;;;6.20;84.50;;;;;;8197818;28;20457;-76
2021/01/14 00:04:52;;;;;;;31.17;12.23;;;6.20;84.80;;;;;;8185877;28;21112;-75
2021/01/14 00:08:53;;;;;;;20.40;13.50;;;6.20;84.90;;;;;;8181330;28;20490;-75
2021/01/14 00:13:08;;;;;;;30.70;14.30;;;6.20;85.10;;;;;;8200385;28;20458;-75
2021/01/14 00:17:12;;;;;;;37.43;16.47;;;6.20;85.60;;;;;;8200236;28;20438;-75
2021/01/14 00:21:30;;;;;;;26.93;16.60;;;6.10;86.10;;;;;;8203520;28;20560;-76
2021/01/14 00:25:35;;;;;;;31.30;16.63;;;6.10;86.10;;;;;;8198355;28;20502;-75
2021/01/14 00:29:40;;;;;;;30.30;17.40;;;6.10;86.30;;;;;;8176546;29;20501;-75
2021/01/14 00:33:42;;;;;;;32.10;18.17;;;6.00;86.40;;;;;;8199172;28;20543;-75
2021/01/14 00:37:52;;;;;;;37.33;20.27;;;6.00;86.60;;;;;;8195098;28;20449;-75
2021/01/14 00:41:56;;;;;;;37.90;22.10;;;6.00;87.00;;;;;;8197791;28;20453;-75
2021/01/14 00:46:02;;;;;;;35.77;22.67;;;5.90;87.40;;;;;;8189445;28;20450;-74
2021/01/14 00:50:07;;;;;;;40.93;22.57;;;5.90;87.60;;;;;;8198478;28;20446;-75
2021/01/14 00:54:09;;;;;;;52.47;26.23;;;5.80;87.80;;;;;;8196383;28;20492;-74
2021/01/14 00:58:14;;;;;;;39.63;23.67;;;5.80;87.80;;;;;;8196499;28;20445;-76
2021/01/14 01:02:19;;;;;;;42.93;24.60;;;5.80;87.80;;;;;;8195857;28;20456;-74
2021/01/14 01:06:21;;;;;;;34.03;21.57;;;5.70;87.70;;;;;;8196264;28;20453;-75
2021/01/14 01:10:24;;;;;;;51.23;25.33;;;5.70;87.80;;;;;;8209360;28;20460;-75
2021/01/14 01:14:27;;;;;;;36.07;20.13;;;5.70;87.80;;;;;;8194190;28;20577;-76
2021/01/14 01:18:28;;;;;;;41.37;23.23;;;5.70;87.80;;;;;;8196368;28;20925;-74
2021/01/14 01:22:39;;;;;;;46.67;23.87;;;5.70;87.90;;;;;;8200035;28;20450;-75
2021/01/14 01:26:55;;;;;;;43.10;21.60;;;5.70;88.10;;;;;;8199346;28;20445;-74
2021/01/14 01:31:03;;;;;;;43.77;24.07;;;5.60;88.10;;;;;;8197489;28;20858;-76
2021/01/14 01:35:05;;;;;;;44.23;22.53;;;5.60;88.20;;;;;;8210027;28;20483;-76
2021/01/14 01:39:07;;;;;;;34.23;22.17;;;5.60;88.10;;;;;;8193630;28;21303;-75
2021/01/14 01:43:12;;;;;;;42.03;22.80;;;5.60;88.20;;;;;;8193874;28;20454;-78
2021/01/14 01:47:33;;;;;;;37.27;21.67;;;5.60;88.20;;;;;;8209869;28;20442;-75
2021/01/14 01:51:39;;;;;;;40.10;21.13;;;5.60;88.20;;;;;;8200195;28;20529;-76
2021/01/14 01:55:45;;;;;;;37.33;21.93;;;5.60;88.20;;;;;;8196899;28;20454;-75
2021/01/14 01:59:53;;;;;;;44.17;22.73;;;5.60;88.20;;;;;;8189913;28;20446;-75
2021/01/14 02:03:58;;;;;;;41.60;21.63;;;5.50;88.10;;;;;;8208837;28;20473;-75
2021/01/14 02:08:19;;;;;;;37.83;19.20;;;5.50;88.00;;;;;;8213504;28;21358;-76
2021/01/14 02:12:32;;;;;;;40.37;19.97;;;5.50;88.00;;;;;;8194539;28;20476;-76
2021/01/14 02:16:37;;;;;;;48.90;21.13;;;5.50;88.20;;;;;;8195415;28;20454;-76
2021/01/14 02:20:38;;;;;;;40.53;19.63;;;5.50;88.30;;;;;;8212242;28;20461;-76
2021/01/14 02:24:48;;;;;;;49.47;22.47;;;5.50;88.30;;;;;;8180539;28;20452;-76
2021/01/14 02:28:49;;;;;;;32.00;18.77;;;5.50;88.30;;;;;;8205493;28;20449;-76
2021/01/14 02:32:53;;;;;;;28.73;12.37;;;5.50;88.30;;;;;;8192625;28;20803;-76
2021/01/14 02:37:01;;;;;;;11.67;5.97;;;5.40;87.40;;;;;;8190546;28;20445;-75
2021/01/14 02:41:05;;;;;;;10.70;5.47;;;5.40;82.60;;;;;;8211657;28;20535;-76
2021/01/14 02:45:07;;;;;;;15.53;7.20;;;5.30;80.20;;;;;;8193185;28;20960;-75
2021/01/14 02:49:14;;;;;;;8.90;4.60;;;5.20;79.80;;;;;;8219069;28;20507;-76
2021/01/14 02:53:26;;;;;;;11.50;3.63;;;5.20;79.00;;;;;;8193996;28;20483;-77
2021/01/14 02:57:27;;;;;;;7.13;3.73;;;5.20;77.30;;;;;;8194033;28;20465;-76
2021/01/14 03:01:32;;;;;;;8.63;2.73;;;5.10;76.40;;;;;;8192737;28;20447;-75
2021/01/14 03:05:32;;;;;;;6.37;2.73;;;5.10;76.00;;;;;;8191377;28;20540;-75
2021/01/14 03:09:40;;;;;;;12.63;2.53;;;5.00;74.20;;;;;;8188247;28;20457;-75
2021/01/14 03:13:41;;;;;;;5.63;2.77;;;4.90;74.60;;;;;;8202406;28;20228;-75
2021/01/14 03:17:45;;;;;;;8.30;3.30;;;4.90;75.00;;;;;;8173481;28;20459;-76
2021/01/14 03:21:50;;;;;;;6.40;2.40;;;4.90;74.10;;;;;;8176414;28;20509;-76
2021/01/14 03:25:56;;;;;;;6.03;2.33;;;4.90;74.10;;;;;;8192102;28;20442;-76
2021/01/14 03:30:01;;;;;;;8.63;3.00;;;4.80;75.00;;;;;;8193715;29;20448;-76
2021/01/14 03:34:07;;;;;;;10.83;3.33;;;4.80;74.30;;;;;;8191698;28;20509;-74
2021/01/14 03:38:08;;;;;;;5.60;1.97;;;4.80;74.50;;;;;;8194240;28;20459;-75
2021/01/14 03:42:12;;;;;;;10.93;3.40;;;4.70;74.30;;;;;;8207630;28;20468;-76
2021/01/14 03:46:25;;;;;;;7.10;2.63;;;4.70;74.50;;;;;;8190239;28;20460;-76
2021/01/14 03:50:38;;;;;;;3.33;2.90;;;4.70;74.80;;;;;;8191667;28;20453;-75
2021/01/14 03:54:46;;;;;;;5.93;1.63;;;4.70;75.10;;;;;;8208444;28;20472;-76
2021/01/14 03:58:48;;;;;;;9.87;2.10;;;4.70;75.10;;;;;;8186485;28;20457;-76
2021/01/14 04:02:52;;;;;;;6.70;2.80;;;4.60;74.60;;;;;;8221380;28;20475;-75
2021/01/14 04:07:12;;;;;;;5.33;2.37;;;4.60;74.80;;;;;;8213303;28;20784;-76
2021/01/14 04:11:29;;;;;;;12.80;3.47;;;4.60;75.60;;;;;;8189311;28;20450;-75
2021/01/14 04:15:37;;;;;;;9.03;3.53;;;4.60;77.40;;;;;;8190951;28;20459;-76
2021/01/14 04:19:37;;;;;;;13.57;4.40;;;4.50;77.80;;;;;;8187018;28;20468;-75
2021/01/14 04:23:48;;;;;;;19.80;4.27;;;4.50;77.90;;;;;;8199747;28;21253;-75
2021/01/14 04:27:52;;;;;;;9.47;5.70;;;4.40;77.80;;;;;;8210809;28;20207;-75
2021/01/14 04:31:56;;;;;;;13.40;3.10;;;4.40;77.60;;;;;;8188044;28;21024;-75
2021/01/14 04:36:05;;;;;;;8.10;5.03;;;4.40;77.50;;;;;;8191679;28;20545;-75
2021/01/14 04:40:08;;;;;;;16.60;3.70;;;4.40;77.90;;;;;;8169491;28;20458;-75
2021/01/14 04:44:12;;;;;;;11.77;3.90;;;4.40;78.00;;;;;;8210171;28;20500;-76
2021/01/14 04:48:19;;;;;;;6.43;3.00;;;4.40;78.80;;;;;;8221911;28;20509;-75
2021/01/14 04:52:26;;;;;;;9.80;3.20;;;4.30;78.70;;;;;;8194086;28;20488;-75
2021/01/14 04:56:35;;;;;;;10.97;5.30;;;4.30;79.00;;;;;;8204885;28;20444;-75
2021/01/14 05:00:42;;;;;;;6.10;3.70;;;4.30;79.30;;;;;;8198670;28;20465;-74
2021/01/14 05:04:50;;;;;;;4.53;3.20;;;4.30;79.90;;;;;;8193090;29;20469;-75
2021/01/14 05:09:01;;;;;;;4.50;3.00;;;4.30;80.20;;;;;;8212330;28;20451;-75
2021/01/14 05:13:02;;;;;;;6.20;3.03;;;4.30;80.40;;;;;;8220247;28;20465;-75
2021/01/14 05:17:04;;;;;;;11.93;3.80;;;4.20;80.60;;;;;;8194972;29;20444;-74
2021/01/14 05:21:05;;;;;;;12.00;3.10;;;4.20;80.60;;;;;;8221003;28;20492;-76
2021/01/14 05:25:09;;;;;;;3.63;2.67;;;4.20;80.50;;;;;;8195323;28;20478;-77
2021/01/14 05:29:19;;;;;;;6.53;2.90;;;4.20;80.00;;;;;;8189468;28;20220;-75
2021/01/14 05:33:24;;;;;;;8.30;3.40;;;4.30;79.60;;;;;;8198143;28;20566;-74
2021/01/14 05:37:29;;;;;;;5.10;2.60;;;4.20;79.10;;;;;;8205602;28;21036;-79
2021/01/14 05:41:38;;;;;;;6.03;3.03;;;4.20;78.70;;;;;;8213523;28;20465;-75
2021/01/14 05:45:42;;;;;;;7.03;2.77;;;4.20;78.50;;;;;;8205968;28;20479;-77
2021/01/14 05:49:57;;;;;;;10.23;2.60;;;4.20;78.10;;;;;;8200521;28;20443;-77
2021/01/14 05:54:09;;;;;;;5.53;3.43;;;4.20;78.20;;;;;;8191884;28;20480;-77
2021/01/14 05:58:17;;;;;;;3.90;1.73;;;4.20;78.30;;;;;;8187881;28;20448;-77
2021/01/14 06:02:30;;;;;;;5.60;1.87;;;4.10;78.40;;;;;;8195813;28;20462;-75
2021/01/14 06:06:35;;;;;;;6.10;2.40;;;4.10;78.50;;;;;;8191584;28;20454;-74
2021/01/14 06:10:49;;;;;;;5.77;1.87;;;4.10;78.60;;;;;;8222382;28;20526;-74
2021/01/14 06:15:15;;;;;;;9.10;2.20;;;4.10;78.70;;;;;;8193138;28;22077;-74
2021/01/14 06:19:16;;;;;;;8.07;2.90;;;4.00;78.50;;;;;;8186992;28;20897;-75
2021/01/14 06:23:23;;;;;;;3.80;2.03;;;4.00;78.40;;;;;;8211128;28;20459;-75
2021/01/14 06:27:24;;;;;;;3.50;2.33;;;4.00;78.50;;;;;;8189644;28;20953;-75
2021/01/14 06:31:26;;;;;;;7.73;3.63;;;4.00;78.50;;;;;;8193547;28;21056;-75
2021/01/14 06:35:28;;;;;;;13.70;3.37;;;4.00;78.40;;;;;;8196731;28;20234;-75
2021/01/14 06:39:56;;;;;;;2.40;2.20;;;3.90;78.50;;;;;;8195627;28;20793;-74
2021/01/14 06:44:05;;;;;;;4.83;2.27;;;3.90;78.80;;;;;;8198872;28;20859;-75
2021/01/14 06:48:12;;;;;;;14.60;2.83;;;3.90;78.40;;;;;;8209477;28;20554;-73
2021/01/14 06:52:15;;;;;;;12.37;3.43;;;3.90;78.30;;;;;;8207606;28;20476;-74
2021/01/14 06:56:23;;;;;;;5.37;2.30;;;3.90;78.10;;;;;;8198950;28;20460;-76
2021/01/14 07:01:00;;;;;;;9.40;3.23;;;3.90;78.20;;;;;;8206814;28;20458;-74
2021/01/14 07:05:09;;;;;;;8.70;2.50;;;3.80;78.00;;;;;;8221146;28;21051;-75
2021/01/14 07:09:20;;;;;;;5.83;2.47;;;3.80;78.70;;;;;;8192491;28;20440;-75
2021/01/14 07:13:55;;;;;;;13.47;4.23;;;3.80;78.80;;;;;;8204625;28;20482;-75
2021/01/14 07:18:08;;;;;;;4.40;1.90;;;3.70;79.10;;;;;;8185177;28;20534;-75
2021/01/14 07:22:15;;;;;;;6.93;2.50;;;3.70;79.00;;;;;;8190531;28;20457;-75
2021/01/14 07:26:35;;;;;;;8.40;2.27;;;3.70;79.00;;;;;;8193213;28;20948;-75
2021/01/14 07:30:37;;;;;;;11.33;2.80;;;3.70;79.00;;;;;;8201422;28;20451;-75
2021/01/14 07:34:46;;;;;;;18.33;7.63;;;3.70;79.10;;;;;;8195803;28;20980;-75
2021/01/14 07:38:57;;;;;;;16.90;7.13;;;3.80;79.30;;;;;;8193062;28;20442;-75
2021/01/14 07:43:03;;;;;;;16.73;6.57;;;3.80;79.10;;;;;;8199927;28;20576;-76
2021/01/14 07:47:07;;;;;;;11.80;3.50;;;3.80;79.10;;;;;;8213500;28;20455;-75
2021/01/14 07:51:12;;;;;;;3.57;2.37;;;3.80;79.30;;;;;;8186942;28;20581;-74
2021/01/14 07:55:29;;;;;;;10.37;3.10;;;3.80;79.30;;;;;;8194423;28;20479;-76
2021/01/14 07:59:30;;;;;;;5.90;2.67;;;3.80;79.20;;;;;;8211086;28;20466;-75
2021/01/14 08:03:41;;;;;;;8.93;3.60;;;3.80;79.20;;;;;;8219080;28;20480;-74
2021/01/14 08:07:41;;;;;;;6.60;3.90;;;3.90;79.30;;;;;;8192268;29;20507;-75
2021/01/14 08:11:45;;;;;;;7.63;3.73;;;4.00;79.10;;;;;;8206244;28;20460;-75
2021/01/14 08:15:49;;;;;;;4.90;3.40;;;4.00;79.10;;;;;;8217363;28;20243;-75
2021/01/14 08:19:51;;;;;;;6.80;3.33;;;4.00;79.10;;;;;;8200499;28;20461;-77
2021/01/14 08:23:56;;;;;;;3.77;2.80;;;4.00;79.00;;;;;;8197445;28;20475;-76
2021/01/14 08:28:06;;;;;;;8.50;3.40;;;4.10;79.10;;;;;;8220269;28;20451;-76
2021/01/14 08:32:26;;;;;;;15.30;5.67;;;4.10;79.10;;;;;;8217196;28;20885;-76
2021/01/14 08:36:31;;;;;;;6.73;2.57;;;4.20;78.90;;;;;;8190737;28;20491;-74
2021/01/14 08:40:34;;;;;;;12.43;3.57;;;4.20;78.70;;;;;;8197856;28;20459;-75
2021/01/14 08:44:41;;;;;;;9.63;3.23;;;4.20;78.80;;;;;;8197452;28;20496;-76
2021/01/14 08:49:15;;;;;;;8.20;3.83;;;4.30;79.10;;;;;;8198782;28;20544;-76
2021/01/14 08:53:19;;;;;;;6.23;3.70;;;4.40;78.90;;;;;;8191829;28;21149;-76
2021/01/14 08:57:20;;;;;;;9.30;4.00;;;4.40;78.60;;;;;;8195144;28;21242;-76
2021/01/14 09:01:26;;;;;;;6.50;6.00;;;4.40;78.10;;;;;;8215232;28;20196;-75
2021/01/14 09:05:32;;;;;;;5.20;3.77;;;4.50;78.60;;;;;;8222284;28;20570;-75
2021/01/14 09:09:33;;;;;;;11.13;5.23;;;4.60;78.80;;;;;;8181182;29;20512;-76
2021/01/14 09:13:46;;;;;;;9.03;3.50;;;4.60;78.50;;;;;;8214842;28;20527;-75
2021/01/14 09:17:55;;;;;;;5.80;3.87;;;4.70;77.90;;;;;;8193877;28;20449;-76
2021/01/14 09:21:57;;;;;;;5.83;2.90;;;4.70;77.70;;;;;;8197097;28;20469;-75
2021/01/14 09:26:11;;;;;;;13.40;3.90;;;4.70;77.80;;;;;;8178599;28;20458;-75
2021/01/14 09:30:19;;;;;;;4.80;4.10;;;4.70;77.50;;;;;;8197625;28;20452;-75
2021/01/14 09:34:22;;;;;;;7.87;3.23;;;4.80;77.40;;;;;;8199824;28;20483;-76
2021/01/14 09:38:26;;;;;;;3.77;3.47;;;4.80;77.70;;;;;;8179838;28;20450;-75
2021/01/14 09:42:27;;;;;;;8.00;3.70;;;5.00;77.90;;;;;;8208236;28;20523;-76
2021/01/14 09:46:36;;;;;;;7.50;3.60;;;5.00;76.50;;;;;;8194096;28;20544;-76
2021/01/14 09:50:40;;;;;;;18.80;4.50;;;5.10;76.70;;;;;;8208313;28;20541;-75
2021/01/14 09:54:43;;;;;;;21.70;4.43;;;5.20;75.00;;;;;;8195519;28;20985;-75
2021/01/14 09:58:48;;;;;;;9.77;4.30;;;5.20;73.30;;;;;;8218172;28;20465;-76
2021/01/14 10:02:58;;;;;;;7.53;3.70;;;5.20;72.80;;;;;;8200591;28;20508;-75
2021/01/14 10:07:05;;;;;;;9.77;4.60;;;5.30;72.90;;;;;;8195815;28;20457;-75
2021/01/14 10:11:12;;;;;;;6.33;4.03;;;5.30;72.00;;;;;;8188440;28;21193;-76
2021/01/14 10:15:19;;;;;;;11.33;5.07;;;5.30;72.60;;;;;;8189006;28;21028;-74
2021/01/14 10:19:24;;;;;;;5.97;4.30;;;5.40;71.70;;;;;;8198730;28;20978;-75
2021/01/14 10:23:29;;;;;;;12.90;4.23;;;5.30;71.10;;;;;;8190517;28;21024;-76
2021/01/14 10:27:30;;;;;;;9.80;5.00;;;5.30;71.40;;;;;;8198387;28;20511;-76
2021/01/14 10:31:44;;;;;;;9.80;4.67;;;5.30;70.10;;;;;;8198609;28;20803;-76
2021/01/14 10:35:55;;;;;;;7.53;4.07;;;5.30;70.30;;;;;;8188287;29;20231;-76
2021/01/14 10:40:01;;;;;;;4.07;3.43;;;5.40;70.70;;;;;;8207803;28;20464;-75
2021/01/14 10:44:06;;;;;;;7.20;3.00;;;5.50;70.80;;;;;;8197013;28;20922;-74
2021/01/14 10:48:17;;;;;;;9.73;4.03;;;5.60;69.80;;;;;;8196551;28;20943;-76
2021/01/14 10:52:22;;;;;;;11.00;4.80;;;5.70;69.00;;;;;;8190891;28;20476;-77
2021/01/14 10:56:24;;;;;;;12.27;7.27;;;5.70;68.70;;;;;;8214813;28;20814;-75
2021/01/14 11:00:36;;;;;;;11.50;4.93;;;5.70;68.10;;;;;;8177132;28;20560;-75
2021/01/14 11:04:37;;;;;;;4.87;3.90;;;5.70;68.00;;;;;;8223310;28;20478;-75
2021/01/14 11:08:44;;;;;;;13.10;4.90;;;5.70;67.80;;;;;;8191755;28;20525;-75
2021/01/14 11:13:11;;;;;;;10.10;4.97;;;5.80;68.30;;;;;;8192236;28;20283;-75
2021/01/14 11:17:22;;;;;;;10.03;3.80;;;5.90;67.50;;;;;;8197574;28;20449;-77
2021/01/14 11:21:33;;;;;;;7.73;4.63;;;5.90;66.40;;;;;;8212130;28;20467;-75
2021/01/14 11:25:54;;;;;;;4.60;4.13;;;5.80;66.50;;;;;;8208321;28;21325;-75
2021/01/14 11:29:57;;;;;;;5.40;3.50;;;5.80;65.80;;;;;;8230164;28;20444;-76
2021/01/14 11:34:03;;;;;;;53.30;19.97;;;5.80;65.30;;;;;;8223995;28;20481;-75
2021/01/14 11:38:09;;;;;;;29.30;9.83;;;5.80;65.00;;;;;;8215272;28;20457;-74
2021/01/14 11:42:15;;;;;;;16.90;7.23;;;5.80;65.70;;;;;;8197146;28;20448;-76
2021/01/14 11:46:22;;;;;;;13.03;5.47;;;5.90;65.90;;;;;;8203474;28;20461;-76
2021/01/14 11:50:36;;;;;;;9.30;5.30;;;5.90;66.20;;;;;;8195602;28;20954;-76
2021/01/14 11:54:37;;;;;;;67.17;25.47;;;6.00;64.80;;;;;;8213412;28;20485;-76
2021/01/14 11:58:38;;;;;;;16.13;8.77;;;5.90;65.30;;;;;;8219729;28;20586;-76
2021/01/14 12:02:40;;;;;;;8.27;5.50;;;5.80;65.50;;;;;;8200017;28;20217;-75
2021/01/14 12:07:08;;;;;;;12.93;4.90;;;5.80;66.10;;;;;;8212129;28;20202;-76
2021/01/14 12:11:09;;;;;;;4.67;3.47;;;5.70;65.80;;;;;;8218012;28;20967;-76
2021/01/14 12:15:17;;;;;;;8.03;3.90;;;5.60;66.00;;;;;;8221146;28;21024;-75
2021/01/14 12:19:21;;;;;;;11.80;4.97;;;5.50;66.20;;;;;;8200502;28;20476;-76
2021/01/14 12:23:38;;;;;;;9.77;4.47;;;5.50;66.70;;;;;;8225657;28;20441;-75
2021/01/14 12:27:43;;;;;;;7.90;3.90;;;5.50;67.20;;;;;;8194833;28;20194;-73
2021/01/14 12:31:44;;;;;;;12.23;7.37;;;5.50;66.90;;;;;;8205877;28;20452;-74
2021/01/14 12:35:48;;;;;;;5.90;4.90;;;5.50;66.90;;;;;;8192118;28;20541;-75
2021/01/14 12:39:50;;;;;;;10.73;5.90;;;5.50;67.00;;;;;;8178593;28;20450;-75
2021/01/14 12:43:54;;;;;;;10.77;4.20;;;5.40;66.80;;;;;;8196454;28;20288;-74
2021/01/14 12:48:04;;;;;;;16.27;9.53;;;5.40;66.80;;;;;;8197544;28;21016;-75
2021/01/14 12:52:08;;;;;;;11.07;8.40;;;5.40;67.40;;;;;;8208634;28;20484;-75
2021/01/14 12:56:16;;;;;;;12.80;7.23;;;5.40;67.30;;;;;;8197713;28;20986;-75
2021/01/14 13:00:18;;;;;;;9.10;7.73;;;5.50;66.50;;;;;;8201930;28;20479;-75
2021/01/14 13:04:26;;;;;;;11.50;6.83;;;5.50;66.60;;;;;;8195390;28;20470;-74
2021/01/14 13:08:28;;;;;;;5.77;4.53;;;5.50;67.30;;;;;;8215284;28;20460;-75
2021/01/14 13:12:35;;;;;;;10.10;3.73;;;5.40;66.90;;;;;;8198485;28;20236;-74
2021/01/14 13:16:44;;;;;;;14.27;6.23;;;5.40;67.10;;;;;;8206328;28;20527;-75
2021/01/14 13:20:52;;;;;;;11.97;5.60;;;5.40;67.60;;;;;;8188385;28;20489;-74
2021/01/14 13:24:55;;;;;;;10.00;5.50;;;5.40;67.40;;;;;;8208157;28;20449;-74
2021/01/14 13:28:59;;;;;;;14.37;7.60;;;5.50;67.30;;;;;;8193566;28;20956;-74
2021/01/14 13:33:02;;;;;;;18.77;10.50;;;5.50;66.60;;;;;;8193886;28;20474;-75
2021/01/14 13:37:11;;;;;;;12.60;7.20;;;5.50;66.60;;;;;;8225798;28;20533;-75
2021/01/14 13:41:13;;;;;;;11.70;4.33;;;5.50;66.80;;;;;;8195140;28;20478;-75
2021/01/14 13:45:14;;;;;;;4.67;3.90;;;5.50;66.80;;;;;;8220698;28;21041;-74
2021/01/14 13:49:20;;;;;;;6.93;5.50;;;5.60;66.70;;;;;;8188298;28;20969;-76
2021/01/14 13:53:22;;;;;;;5.90;4.30;;;5.60;66.70;;;;;;8201946;28;20481;-75
2021/01/14 13:57:24;;;;;;;16.67;3.50;;;5.70;65.80;;;;;;8200051;28;20477;-75
2021/01/14 14:01:28;;;;;;;7.20;3.63;;;5.60;65.20;;;;;;8178189;28;20981;-75
2021/01/14 14:05:33;;;;;;;4.83;3.63;;;5.60;64.60;;;;;;8195913;28;21051;-75
2021/01/14 14:09:38;;;;;;;7.57;4.17;;;5.70;64.20;;;;;;8194235;28;20472;-74
2021/01/14 14:13:46;;;;;;;8.50;3.17;;;5.60;63.90;;;;;;8195091;28;20489;-74
2021/01/14 14:17:54;;;;;;;10.50;3.67;;;5.60;64.40;;;;;;8213493;28;20475;-73
2021/01/14 14:21:58;;;;;;;10.03;3.97;;;5.60;64.70;;;;;;8209827;28;20625;-74
2021/01/14 14:25:59;;;;;;;7.93;5.10;;;5.60;65.50;;;;;;8194303;28;20460;-74
2021/01/14 14:30:00;;;;;;;5.10;3.40;;;5.60;66.10;;;;;;8196379;28;20882;-75
2021/01/14 14:34:09;;;;;;;7.60;5.80;;;5.50;65.40;;;;;;8197273;28;20477;-74
2021/01/14 14:38:15;;;;;;;8.00;3.47;;;5.40;65.20;;;;;;8189328;28;20465;-74
2021/01/14 14:42:18;;;;;;;14.67;4.60;;;5.40;65.70;;;;;;8193567;28;20455;-75
2021/01/14 14:46:32;;;;;;;3.73;3.17;;;5.30;66.20;;;;;;8194109;28;20457;-75
2021/01/14 14:50:34;;;;;;;7.00;4.07;;;5.20;66.50;;;;;;8191431;28;20457;-74
2021/01/14 14:54:35;;;;;;;13.83;3.90;;;5.10;66.80;;;;;;8204120;28;21284;-75
2021/01/14 14:58:40;;;;;;;8.53;5.93;;;5.10;67.10;;;;;;8180904;28;20476;-75
2021/01/14 15:02:41;;;;;;;7.20;4.73;;;5.00;67.80;;;;;;8203094;28;20476;-74
2021/01/14 15:06:55;;;;;;;5.20;4.50;;;4.90;68.00;;;;;;8188342;28;20538;-75
2021/01/14 15:11:01;;;;;;;6.70;4.37;;;4.90;68.50;;;;;;8187255;28;20535;-74
2021/01/14 15:15:03;;;;;;;4.73;4.30;;;4.80;68.70;;;;;;8188886;28;20491;-75
2021/01/14 15:19:06;;;;;;;8.17;4.20;;;4.80;68.00;;;;;;8210445;28;20461;-74
2021/01/14 15:23:07;;;;;;;3.93;3.10;;;4.80;68.50;;;;;;8193122;28;20502;-73
2021/01/14 15:27:10;;;;;;;5.13;3.23;;;4.70;68.70;;;;;;8201352;28;20456;-75
2021/01/14 15:31:11;;;;;;;8.63;3.23;;;4.70;68.90;;;;;;8196038;28;21190;-74
2021/01/14 15:35:22;;;;;;;5.60;3.93;;;4.70;69.20;;;;;;8210496;28;21036;-75
2021/01/14 15:39:25;;;;;;;5.40;4.20;;;4.70;69.30;;;;;;8185707;28;20528;-76
2021/01/14 15:43:26;;;;;;;10.23;4.10;;;4.60;69.70;;;;;;8186910;28;20487;-75
2021/01/14 15:47:32;;;;;;;4.40;2.60;;;4.60;70.00;;;;;;8226582;28;20452;-73
2021/01/14 15:51:34;;;;;;;8.23;3.70;;;4.50;70.00;;;;;;8172351;28;20451;-74
2021/01/14 15:55:40;;;;;;;10.20;3.50;;;4.50;70.00;;;;;;8175386;29;20480;-75
2021/01/14 15:59:43;;;;;;;5.00;4.23;;;4.50;70.10;;;;;;8192998;28;20507;-74
2021/01/14 16:03:47;;;;;;;20.57;5.20;;;4.40;69.80;;;;;;8190936;28;20548;-76
2021/01/14 16:07:52;;;;;;;6.17;4.23;;;4.40;69.90;;;;;;8191814;28;20467;-76
2021/01/14 16:11:56;;;;;;;7.00;5.20;;;4.30;69.90;;;;;;8194933;28;20450;-77
2021/01/14 16:15:56;;;;;;;6.60;3.65;;;4.30;70.10;;;;;;8201140;28;20465;-75
2021/01/14 16:20:00;;;;;;;12.67;4.87;;;4.40;70.60;;;;;;8207161;28;20200;-75
2021/01/14 16:24:05;;;;;;;33.67;9.93;;;4.40;70.10;;;;;;8230113;28;20204;-76
2021/01/14 16:28:19;;;;;;;27.53;15.83;;;4.30;70.10;;;;;;8203505;28;20447;-76
2021/01/14 16:32:24;;;;;;;21.83;12.53;;;4.30;70.20;;;;;;8195187;29;20517;-76
2021/01/14 16:36:31;;;;;;;12.03;7.00;;;4.30;70.50;;;;;;8195441;28;20532;-76
2021/01/14 16:40:33;;;;;;;10.80;4.73;;;4.20;70.40;;;;;;8198525;28;20450;-76
2021/01/14 16:44:44;;;;;;;11.47;4.20;;;4.20;70.50;;;;;;8205218;28;20494;-77
2021/01/14 16:48:49;;;;;;;10.13;4.20;;;4.20;70.50;;;;;;8213937;28;20442;-75
2021/01/14 16:52:55;;;;;;;5.27;4.93;;;4.20;70.50;;;;;;8216364;28;20522;-76
2021/01/14 16:56:58;;;;;;;5.03;4.30;;;4.10;70.50;;;;;;8194170;28;20499;-75
2021/01/14 17:01:01;;;;;;;6.97;3.77;;;4.10;70.60;;;;;;8201930;28;20506;-75
2021/01/14 17:05:02;;;;;;;12.10;4.47;;;4.10;70.60;;;;;;8210080;28;21088;-74
2021/01/14 17:09:12;;;;;;;7.80;3.77;;;4.10;70.70;;;;;;8214320;28;20464;-75
2021/01/14 17:13:13;;;;;;;8.30;4.67;;;4.10;70.70;;;;;;8195195;28;20474;-76
2021/01/14 17:17:16;;;;;;;7.17;4.57;;;4.00;70.70;;;;;;8195562;28;20475;-76
2021/01/14 17:21:19;;;;;;;4.27;3.40;;;4.00;70.70;;;;;;8197974;28;20207;-76
2021/01/14 17:25:27;;;;;;;7.03;3.70;;;4.00;71.00;;;;;;8208727;28;20813;-74
2021/01/14 17:29:30;;;;;;;7.33;4.80;;;4.00;71.00;;;;;;8207440;28;20454;-76
2021/01/14 17:33:35;;;;;;;15.10;4.20;;;3.90;70.90;;;;;;8197172;28;20483;-75
2021/01/14 17:37:38;;;;;;;12.63;4.63;;;3.90;71.30;;;;;;8193575;28;20824;-75
2021/01/14 17:41:41;;;;;;;10.47;5.27;;;3.90;71.70;;;;;;8194634;28;20442;-76
2021/01/14 17:45:53;;;;;;;7.33;6.03;;;3.90;71.80;;;;;;8193640;28;20459;-76
2021/01/14 17:49:56;;;;;;;18.73;5.93;;;3.80;71.60;;;;;;8196991;28;20460;-76
2021/01/14 17:53:58;;;;;;;8.00;4.67;;;3.80;71.90;;;;;;8196475;28;20482;-76
2021/01/14 17:58:00;;;;;;;7.57;4.90;;;3.80;71.80;;;;;;8196195;28;20457;-76
2021/01/14 18:02:01;;;;;;;9.80;4.40;;;3.80;71.80;;;;;;8210007;28;20525;-75
2021/01/14 18:06:04;;;;;;;6.03;3.97;;;3.80;72.00;;;;;;8213457;28;20471;-75
2021/01/14 18:10:11;;;;;;;7.00;4.70;;;3.80;72.00;;;;;;8206779;28;20556;-76
2021/01/14 18:14:13;;;;;;;7.67;4.90;;;3.80;72.00;;;;;;8194393;28;20558;-75
2021/01/14 18:18:16;;;;;;;9.10;5.30;;;3.70;72.00;;;;;;8210139;28;20495;-75
2021/01/14 18:22:17;;;;;;;6.83;5.60;;;3.70;72.10;;;;;;8212391;28;20542;-75
2021/01/14 18:26:22;;;;;;;6.73;5.00;;;3.70;72.10;;;;;;8197063;28;20514;-75
2021/01/14 18:30:29;;;;;;;10.13;5.53;;;3.70;72.20;;;;;;8197809;28;20534;-75
2021/01/14 18:34:30;;;;;;;9.20;5.60;;;3.70;72.40;;;;;;8174793;28;20472;-76
2021/01/14 18:38:38;;;;;;;10.00;5.10;;;3.70;72.50;;;;;;8198187;28;20566;-75
2021/01/14 18:42:52;;;;;;;7.90;5.73;;;3.60;72.50;;;;;;8190696;28;20195;-76
2021/01/14 18:46:53;;;;;;;7.57;5.80;;;3.60;72.40;;;;;;8194913;28;20459;-74
2021/01/14 18:51:03;;;;;;;6.70;4.97;;;3.60;72.60;;;;;;8188995;28;20954;-77
2021/01/14 18:55:04;;;;;;;7.60;5.77;;;3.60;72.50;;;;;;8192744;28;21046;-75
2021/01/14 18:59:06;;;;;;;9.40;6.77;;;3.60;72.50;;;;;;8214042;28;20450;-75
2021/01/14 19:03:13;;;;;;;11.10;6.00;;;3.60;72.40;;;;;;8193063;28;20467;-74
2021/01/14 19:07:18;;;;;;;11.20;7.80;;;3.60;72.40;;;;;;8208421;28;20458;-75
2021/01/14 19:11:22;;;;;;;18.80;10.97;;;3.50;72.30;;;;;;8176749;28;20478;-76
2021/01/14 19:15:26;;;;;;;12.07;8.10;;;3.60;72.30;;;;;;8194521;28;20611;-75
2021/01/14 19:19:27;;;;;;;37.07;15.23;;;3.50;72.40;;;;;;8207421;28;20464;-76
2021/01/14 19:23:32;;;;;;;22.77;12.33;;;3.50;72.50;;;;;;8194837;28;20449;-75
2021/01/14 19:27:39;;;;;;;22.90;10.63;;;3.50;72.30;;;;;;8191665;28;21006;-76
2021/01/14 19:31:41;;;;;;;13.80;7.83;;;3.50;72.40;;;;;;8189236;28;20453;-75
2021/01/14 19:35:42;;;;;;;21.30;9.17;;;3.50;72.50;;;;;;8188499;28;20462;-73
2021/01/14 19:39:47;;;;;;;11.97;7.90;;;3.50;72.50;;;;;;8189419;28;20458;-73
2021/01/14 19:43:53;;;;;;;18.57;9.20;;;3.50;72.40;;;;;;8186852;28;20470;-75
2021/01/14 19:47:56;;;;;;;14.50;8.83;;;3.40;72.50;;;;;;8192507;28;20835;-74
2021/01/14 19:52:01;;;;;;;7.80;7.00;;;3.40;72.60;;;;;;8196822;28;20438;-74
2021/01/14 19:56:02;;;;;;;16.00;10.00;;;3.40;72.60;;;;;;8187690;28;20457;-73
2021/01/14 20:00:08;;;;;;;6.90;6.20;;;3.30;72.90;;;;;;8222522;28;20600;-74
2021/01/14 20:04:10;;;;;;;10.07;6.73;;;3.30;73.10;;;;;;8194264;28;20464;-74
2021/01/14 20:08:14;;;;;;;10.83;5.90;;;3.30;73.20;;;;;;8204361;28;20992;-75
2021/01/14 20:12:18;;;;;;;8.07;5.80;;;3.20;73.40;;;;;;8186755;28;20447;-74
2021/01/14 20:16:20;;;;;;;9.80;6.40;;;3.20;73.40;;;;;;8219539;28;20601;-74
2021/01/14 20:20:23;;;;;;;9.00;5.10;;;3.20;73.50;;;;;;8194994;28;20207;-75
2021/01/14 20:24:27;;;;;;;11.50;8.07;;;3.20;73.50;;;;;;8201632;28;20495;-74
2021/01/14 20:28:31;;;;;;;7.30;6.50;;;3.20;73.50;;;;;;8225875;28;20457;-75
2021/01/14 20:32:34;;;;;;;10.23;6.20;;;3.20;73.40;;;;;;8182317;28;20244;-74
2021/01/14 20:36:46;;;;;;;8.00;5.87;;;3.20;73.10;;;;;;8211043;28;20452;-74
2021/01/14 20:40:52;;;;;;;13.37;5.57;;;3.20;73.00;;;;;;8199388;28;20482;-74
2021/01/14 20:44:53;;;;;;;8.00;5.70;;;3.20;72.90;;;;;;8213314;28;20454;-74
2021/01/14 20:48:59;;;;;;;7.53;5.93;;;3.20;72.90;;;;;;8197421;28;20978;-73
2021/01/14 20:53:03;;;;;;;10.80;7.37;;;3.10;72.70;;;;;;8197644;28;20474;-74
2021/01/14 20:57:13;;;;;;;6.40;5.40;;;3.10;72.80;;;;;;8191497;28;20454;-74
2021/01/14 21:01:18;;;;;;;9.53;6.47;;;3.00;72.90;;;;;;8204653;28;20480;-75
2021/01/14 21:05:28;;;;;;;6.97;6.00;;;3.00;73.40;;;;;;8200538;28;20467;-74
2021/01/14 21:09:31;;;;;;;10.33;6.80;;;2.90;74.00;;;;;;8206378;28;20446;-74
2021/01/14 21:13:43;;;;;;;14.47;6.50;;;2.80;74.10;;;;;;8203162;28;20493;-74
2021/01/14 21:17:50;;;;;;;8.53;5.93;;;2.70;74.40;;;;;;8188726;28;20624;-74
2021/01/14 21:21:58;;;;;;;9.23;7.40;;;2.50;74.60;;;;;;8196601;28;20458;-74
2021/01/14 21:25:58;;;;;;;8.77;6.87;;;2.40;75.30;;;;;;8191916;28;20484;-74